Time;durP1;ratioP1;P1;durP2;ratioP2;P2;SDS_P1;SDS_P2;PMS_P1;PMS_P2;Temp;Humidity;BMP_temperature;BMP_pressure;BME280_temperature;BME280_humidity;BME280_pressure;Samples;Min_cycle;Max_cycle;Signal;HPM_P1;HPM_P2
2023/05/16 00:00:24;;;;;;;11.85;2.55;;;11.50;99.90;;;;;;5010661;28;20107;-81
2023/05/16 00:02:50;;;;;;;10.40;1.60;;;11.40;99.90;;;;;;5005525;28;20033;-82
2023/05/16 00:05:16;;;;;;;10.23;1.75;;;11.40;99.90;;;;;;5010251;28;20467;-83
2023/05/16 00:07:43;;;;;;;15.77;2.97;;;11.40;99.90;;;;;;5020327;28;20109;-81
2023/05/16 00:10:10;;;;;;;11.18;2.03;;;11.40;99.90;;;;;;5023898;28;20467;-81
2023/05/16 00:12:38;;;;;;;9.00;2.10;;;11.40;99.90;;;;;;5021069;28;20099;-81
2023/05/16 00:15:05;;;;;;;14.02;2.22;;;11.40;99.90;;;;;;5003023;28;20042;-82
2023/05/16 00:17:31;;;;;;;12.18;1.80;;;11.40;99.90;;;;;;5007672;28;20050;-82
2023/05/16 00:19:57;;;;;;;11.57;2.20;;;11.30;99.90;;;;;;4998502;28;20402;-81
2023/05/16 00:22:24;;;;;;;10.80;1.63;;;11.30;99.90;;;;;;4989675;28;20041;-81
2023/05/16 00:24:50;;;;;;;13.23;1.52;;;11.20;99.90;;;;;;5018651;28;20044;-81
2023/05/16 00:27:15;;;;;;;10.05;2.38;;;11.30;99.90;;;;;;4998811;28;20041;-81
2023/05/16 00:29:41;;;;;;;9.98;1.50;;;11.20;99.90;;;;;;5004802;28;20100;-81
2023/05/16 00:32:07;;;;;;;14.88;1.88;;;11.20;99.90;;;;;;5024229;28;20041;-81
2023/05/16 00:34:34;;;;;;;16.40;1.77;;;11.30;99.90;;;;;;5021239;28;20558;-81
2023/05/16 00:37:00;;;;;;;12.57;2.00;;;11.20;99.90;;;;;;5027444;28;20085;-81
2023/05/16 00:39:25;;;;;;;17.23;2.03;;;11.20;99.90;;;;;;5018572;28;20890;-81
2023/05/16 00:41:51;;;;;;;11.30;2.05;;;11.10;99.90;;;;;;5008271;28;20076;-81
2023/05/16 00:44:17;;;;;;;15.00;2.28;;;11.10;99.90;;;;;;5023145;28;20116;-82
2023/05/16 00:46:42;;;;;;;12.13;1.80;;;11.00;99.90;;;;;;5000516;28;20378;-82
2023/05/16 00:49:08;;;;;;;10.43;2.00;;;11.00;99.90;;;;;;5000997;28;20046;-82
2023/05/16 00:51:36;;;;;;;13.57;2.22;;;11.00;99.90;;;;;;5022224;28;20045;-82
2023/05/16 00:54:02;;;;;;;7.03;1.38;;;11.20;99.90;;;;;;4989844;28;20045;-82
2023/05/16 00:56:28;;;;;;;11.88;2.28;;;11.00;99.90;;;;;;5022719;28;20038;-82
2023/05/16 00:58:54;;;;;;;11.07;2.10;;;10.90;99.90;;;;;;5003133;28;20080;-82
2023/05/16 01:01:23;;;;;;;10.60;1.67;;;10.90;99.90;;;;;;5027121;28;20073;-82
2023/05/16 01:03:49;;;;;;;7.97;1.77;;;10.90;99.90;;;;;;5019660;28;20048;-82
2023/05/16 01:06:15;;;;;;;8.02;1.73;;;10.90;99.90;;;;;;5006113;28;20085;-82
2023/05/16 01:08:41;;;;;;;9.70;1.80;;;10.90;99.90;;;;;;5000941;28;20072;-82
2023/05/16 01:11:26;;;;;;;12.27;1.88;;;10.90;99.90;;;;;;5015582;28;20037;-81
2023/05/16 01:14:30;;;;;;;13.20;2.25;;;10.80;99.90;;;;;;5025881;28;20041;-82
2023/05/16 01:17:14;;;;;;;11.63;1.60;;;10.80;99.90;;;;;;4988524;28;20488;-82
2023/05/16 01:19:53;;;;;;;12.93;2.00;;;10.70;99.90;;;;;;5019308;28;20088;-82
2023/05/16 01:22:46;;;;;;;18.73;2.78;;;10.80;99.90;;;;;;4999462;28;20034;-82
2023/05/16 01:25:30;;;;;;;16.30;2.20;;;10.70;99.90;;;;;;4996261;28;20049;-82
2023/05/16 01:27:57;;;;;;;15.20;2.15;;;10.70;99.90;;;;;;5000518;28;20468;-81
2023/05/16 01:30:23;;;;;;;11.27;1.70;;;10.70;99.90;;;;;;5017080;28;20100;-82
2023/05/16 01:32:49;;;;;;;7.22;1.27;;;10.70;99.90;;;;;;5001728;28;20045;-82
2023/05/16 01:35:16;;;;;;;9.13;1.38;;;10.70;99.90;;;;;;5017460;28;20060;-81
2023/05/16 01:37:48;;;;;;;10.55;1.63;;;10.70;99.90;;;;;;4989362;28;20504;-82
2023/05/16 01:40:35;;;;;;;11.30;1.98;;;10.60;99.90;;;;;;5025443;28;20045;-82
2023/05/16 01:43:07;;;;;;;9.82;1.40;;;10.70;99.90;;;;;;4985166;28;20029;-81
2023/05/16 01:45:36;;;;;;;8.45;1.40;;;10.60;99.90;;;;;;5012823;28;20087;-82
2023/05/16 01:48:09;;;;;;;10.23;1.38;;;10.50;99.90;;;;;;5004918;28;20511;-82
2023/05/16 01:50:50;;;;;;;9.70;1.83;;;10.50;99.90;;;;;;4999235;28;20095;-82
2023/05/16 01:53:22;;;;;;;9.43;1.30;;;10.40;99.90;;;;;;5025120;28;20080;-82
2023/05/16 01:55:51;;;;;;;9.15;1.33;;;10.40;99.90;;;;;;5012145;28;20182;-81
2023/05/16 01:58:21;;;;;;;9.13;1.20;;;10.40;99.90;;;;;;5013300;28;20471;-81
2023/05/16 02:00:47;;;;;;;9.88;1.67;;;10.30;99.90;;;;;;5024112;28;20033;-81
2023/05/16 02:03:13;;;;;;;9.52;1.67;;;10.50;99.90;;;;;;5009698;28;20061;-82
2023/05/16 02:05:38;;;;;;;11.15;2.55;;;10.30;99.90;;;;;;5004364;28;20038;-82
2023/05/16 02:08:04;;;;;;;11.82;1.55;;;10.20;99.90;;;;;;4996131;28;20045;-82
2023/05/16 02:10:30;;;;;;;12.65;1.80;;;10.20;99.90;;;;;;4999009;28;20172;-82
2023/05/16 02:12:56;;;;;;;15.18;1.80;;;10.20;99.90;;;;;;5025320;28;20116;-81
2023/05/16 02:15:22;;;;;;;12.90;1.85;;;10.20;99.90;;;;;;4989078;28;20108;-82
2023/05/16 02:17:48;;;;;;;11.55;1.42;;;10.20;99.90;;;;;;5009452;28;20037;-82
2023/05/16 02:20:14;;;;;;;13.35;1.42;;;10.10;99.90;;;;;;5028042;28;20064;-82
2023/05/16 02:22:41;;;;;;;8.25;1.05;;;10.10;99.90;;;;;;4985462;28;20118;-82
2023/05/16 02:25:07;;;;;;;9.25;1.90;;;10.50;99.90;;;;;;5026385;28;20042;-82
2023/05/16 02:27:33;;;;;;;9.20;1.83;;;10.10;99.90;;;;;;5023672;28;20034;-82
2023/05/16 02:29:58;;;;;;;9.32;1.35;;;10.10;99.90;;;;;;5021435;28;20037;-81
2023/05/16 02:32:25;;;;;;;12.20;2.00;;;10.10;99.90;;;;;;5008113;28;20041;-82
2023/05/16 02:34:50;;;;;;;12.05;1.63;;;10.10;99.90;;;;;;5009534;28;20120;-82
2023/05/16 02:37:16;;;;;;;11.57;1.65;;;10.10;99.90;;;;;;5015573;28;20133;-82
2023/05/16 02:39:41;;;;;;;9.20;1.55;;;10.10;99.90;;;;;;5008362;28;20052;-82
2023/05/16 02:42:07;;;;;;;10.05;2.08;;;10.10;99.90;;;;;;4993519;28;20041;-82
2023/05/16 02:44:33;;;;;;;12.13;1.48;;;10.10;99.90;;;;;;4988327;28;20469;-81
2023/05/16 02:46:59;;;;;;;9.75;1.45;;;10.10;99.90;;;;;;5023163;28;20496;-81
2023/05/16 02:49:25;;;;;;;10.55;1.67;;;10.10;99.90;;;;;;5004559;28;20079;-81
2023/05/16 02:51:51;;;;;;;13.30;1.70;;;10.10;99.90;;;;;;5008765;28;20037;-82
2023/05/16 02:54:17;;;;;;;9.35;1.50;;;10.10;99.90;;;;;;5021084;28;20048;-82
2023/05/16 02:56:43;;;;;;;8.40;1.40;;;10.10;99.90;;;;;;5017768;28;20519;-82
2023/05/16 02:59:10;;;;;;;9.35;2.33;;;10.10;99.90;;;;;;4984333;28;20042;-82
2023/05/16 03:01:36;;;;;;;10.52;1.75;;;10.10;99.90;;;;;;5024972;28;20037;-82
2023/05/16 03:04:02;;;;;;;10.15;1.60;;;10.10;99.90;;;;;;4993843;28;20095;-82
2023/05/16 03:06:29;;;;;;;8.15;1.30;;;10.10;99.90;;;;;;5001870;28;20038;-82
2023/05/16 03:08:54;;;;;;;9.20;1.88;;;10.00;99.90;;;;;;5009189;28;20376;-81
2023/05/16 03:11:22;;;;;;;8.25;1.35;;;10.00;99.90;;;;;;5011908;28;20492;-82
2023/05/16 03:13:48;;;;;;;9.40;1.60;;;10.00;99.90;;;;;;5002131;28;20095;-81
2023/05/16 03:16:15;;;;;;;8.75;1.48;;;9.90;99.90;;;;;;5003801;28;20176;-82
2023/05/16 03:18:41;;;;;;;13.45;2.08;;;9.90;99.90;;;;;;4990503;28;20391;-82
2023/05/16 03:21:07;;;;;;;8.52;1.27;;;9.90;99.90;;;;;;5011574;28;20029;-82
2023/05/16 03:23:32;;;;;;;7.72;1.50;;;9.90;99.90;;;;;;5023224;28;20114;-81
2023/05/16 03:25:58;;;;;;;13.15;1.80;;;9.90;99.90;;;;;;5008535;28;20491;-81
2023/05/16 03:28:24;;;;;;;11.90;2.30;;;9.90;99.90;;;;;;5006163;28;20056;-82
2023/05/16 03:30:50;;;;;;;8.98;1.95;;;9.90;99.90;;;;;;5018639;28;20083;-82
2023/05/16 03:33:15;;;;;;;12.27;1.98;;;9.90;99.90;;;;;;4998522;28;20037;-82
2023/05/16 03:35:42;;;;;;;10.18;1.73;;;9.90;99.90;;;;;;5002790;28;20037;-81
2023/05/16 03:38:08;;;;;;;7.25;1.85;;;9.90;99.90;;;;;;4996325;28;20091;-82
2023/05/16 03:40:34;;;;;;;12.57;2.42;;;9.80;99.90;;;;;;5001389;28;20042;-81
2023/05/16 03:42:59;;;;;;;9.38;1.60;;;9.80;99.90;;;;;;4982737;28;20038;-81
2023/05/16 03:45:25;;;;;;;15.13;2.95;;;9.80;99.90;;;;;;5021677;28;20518;-82
2023/05/16 03:47:51;;;;;;;10.45;1.80;;;9.80;99.90;;;;;;4991564;28;20063;-82
2023/05/16 03:50:17;;;;;;;13.98;2.35;;;9.80;99.90;;;;;;5000221;28;20389;-81
2023/05/16 03:52:42;;;;;;;15.68;1.88;;;9.80;99.90;;;;;;5022647;28;20593;-82
2023/05/16 03:55:08;;;;;;;11.65;1.67;;;9.70;99.90;;;;;;5004581;28;20068;-81
2023/05/16 03:57:37;;;;;;;11.05;1.92;;;9.70;99.90;;;;;;5002799;28;20034;-82
2023/05/16 04:00:06;;;;;;;8.27;2.08;;;9.70;99.90;;;;;;5016821;28;20095;-82
2023/05/16 04:02:32;;;;;;;12.57;1.80;;;9.60;99.90;;;;;;4992734;28;20053;-82
2023/05/16 04:04:58;;;;;;;15.35;2.42;;;9.60;99.90;;;;;;5022428;28;20029;-81
2023/05/16 04:07:23;;;;;;;9.23;1.60;;;9.60;99.90;;;;;;4999313;28;20076;-81
2023/05/16 04:09:50;;;;;;;8.55;1.27;;;9.60;99.90;;;;;;5003294;28;20045;-82
2023/05/16 04:12:16;;;;;;;9.93;1.52;;;9.60;99.90;;;;;;5023947;28;20044;-82
2023/05/16 04:14:42;;;;;;;9.25;2.25;;;9.60;99.90;;;;;;5019875;28;20037;-82
2023/05/16 04:17:08;;;;;;;10.27;2.08;;;9.60;99.90;;;;;;5026281;28;20051;-81
2023/05/16 04:19:33;;;;;;;10.93;2.50;;;9.60;99.90;;;;;;5008655;28;20037;-81
2023/05/16 04:21:59;;;;;;;10.20;1.98;;;9.60;99.90;;;;;;5017162;28;20160;-82
2023/05/16 04:24:27;;;;;;;9.95;1.80;;;9.50;99.90;;;;;;5000293;28;20434;-81
2023/05/16 04:26:53;;;;;;;9.23;1.88;;;9.50;99.90;;;;;;5015959;28;20481;-81
2023/05/16 04:29:20;;;;;;;12.18;2.35;;;9.50;99.90;;;;;;5028452;28;20484;-81
2023/05/16 04:31:46;;;;;;;10.90;1.70;;;9.60;99.90;;;;;;5020191;28;20100;-82
2023/05/16 04:34:12;;;;;;;14.82;2.15;;;9.50;99.90;;;;;;5000576;28;20069;-82
2023/05/16 04:36:37;;;;;;;11.10;1.65;;;9.50;99.90;;;;;;5002881;28;20045;-81
2023/05/16 04:39:03;;;;;;;10.32;2.42;;;9.50;99.90;;;;;;5005682;28;20053;-82
2023/05/16 04:41:29;;;;;;;8.90;2.13;;;9.50;99.90;;;;;;5002201;28;20033;-82
2023/05/16 04:43:55;;;;;;;14.85;2.47;;;9.50;99.90;;;;;;5004087;28;20086;-81
2023/05/16 04:46:20;;;;;;;12.20;1.90;;;9.50;99.90;;;;;;5018799;28;20043;-82
2023/05/16 04:48:46;;;;;;;13.27;1.80;;;9.50;99.90;;;;;;5023290;28;20479;-81
2023/05/16 04:51:12;;;;;;;14.80;1.70;;;9.70;99.90;;;;;;5007034;28;20038;-82
2023/05/16 04:53:37;;;;;;;17.50;2.63;;;9.50;99.90;;;;;;5024951;28;20385;-81
2023/05/16 04:56:04;;;;;;;12.07;1.60;;;9.50;99.90;;;;;;5016958;28;20041;-82
2023/05/16 04:58:30;;;;;;;11.65;2.08;;;9.30;99.90;;;;;;5019855;28;20042;-81
2023/05/16 05:00:56;;;;;;;4.85;1.55;;;9.50;99.90;;;;;;5011287;28;20025;-82
2023/05/16 05:03:22;;;;;;;8.32;1.73;;;9.50;99.90;;;;;;5017051;28;20488;-82
2023/05/16 05:05:48;;;;;;;6.63;1.58;;;9.50;99.90;;;;;;5000827;28;20069;-82
2023/05/16 05:08:15;;;;;;;9.02;1.85;;;9.50;99.90;;;;;;5006155;28;20808;-82
2023/05/16 05:10:41;;;;;;;8.98;1.63;;;9.50;99.90;;;;;;4996467;28;20132;-82
2023/05/16 05:13:07;;;;;;;11.63;2.22;;;9.70;99.90;;;;;;5006132;28;20117;-82
2023/05/16 05:15:32;;;;;;;10.82;2.20;;;9.50;99.90;;;;;;5007591;28;20054;-82
2023/05/16 05:17:58;;;;;;;13.30;2.17;;;9.60;99.90;;;;;;5015978;28;20037;-81
2023/05/16 05:20:25;;;;;;;9.63;1.33;;;9.60;99.90;;;;;;5005887;28;20041;-81
2023/05/16 05:22:53;;;;;;;8.02;1.15;;;9.70;99.90;;;;;;5002311;28;20041;-81
2023/05/16 05:25:19;;;;;;;10.02;1.70;;;9.70;99.90;;;;;;5018461;28;20139;-81
2023/05/16 05:27:45;;;;;;;8.13;1.20;;;9.70;99.90;;;;;;5017724;28;20048;-83
2023/05/16 05:30:11;;;;;;;10.13;1.88;;;9.70;99.90;;;;;;4985556;28;20050;-80
2023/05/16 05:32:37;;;;;;;7.47;1.17;;;9.70;99.90;;;;;;5020914;28;20095;-83
2023/05/16 05:35:03;;;;;;;9.20;2.08;;;9.70;99.90;;;;;;4989874;28;20464;-82
2023/05/16 05:37:29;;;;;;;11.23;1.90;;;9.70;99.90;;;;;;5003563;28;20054;-82
2023/05/16 05:39:55;;;;;;;10.98;1.70;;;9.70;99.90;;;;;;4980554;28;20041;-80
2023/05/16 05:42:21;;;;;;;10.13;2.45;;;9.80;99.90;;;;;;5000458;28;20045;-81
2023/05/16 05:44:47;;;;;;;9.10;1.85;;;9.80;99.90;;;;;;5018366;28;20046;-82
2023/05/16 05:47:13;;;;;;;10.68;1.83;;;9.80;99.90;;;;;;5009600;28;20052;-81
2023/05/16 05:49:39;;;;;;;10.55;1.70;;;9.80;99.90;;;;;;5008574;28;20046;-82
2023/05/16 05:52:06;;;;;;;8.38;1.42;;;9.80;99.90;;;;;;5002022;28;20087;-83
2023/05/16 05:54:32;;;;;;;11.18;2.13;;;9.80;99.90;;;;;;5021648;28;20030;-83
2023/05/16 05:56:58;;;;;;;9.98;1.85;;;9.90;99.90;;;;;;5015578;28;20041;-83
2023/05/16 05:59:24;;;;;;;15.70;1.85;;;10.30;99.90;;;;;;5013859;28;20045;-82
2023/05/16 06:01:51;;;;;;;10.93;2.15;;;10.50;99.90;;;;;;5023175;28;20389;-82
2023/05/16 06:04:20;;;;;;;11.05;1.70;;;9.90;99.90;;;;;;5018929;28;20042;-81
2023/05/16 06:06:46;;;;;;;7.97;1.55;;;9.90;99.90;;;;;;5002392;28;20041;-82
2023/05/16 06:09:13;;;;;;;11.73;1.38;;;9.90;99.90;;;;;;4993496;28;20131;-81
2023/05/16 06:11:40;;;;;;;8.30;1.35;;;9.90;99.90;;;;;;5026261;28;20519;-83
2023/05/16 06:14:06;;;;;;;11.02;1.70;;;9.90;99.90;;;;;;4988067;28;20033;-84
2023/05/16 06:16:32;;;;;;;11.07;1.70;;;10.00;99.90;;;;;;4999540;28;20074;-85
2023/05/16 06:18:58;;;;;;;7.32;1.30;;;10.10;99.90;;;;;;5018252;28;20073;-85
2023/05/16 06:21:24;;;;;;;10.20;1.50;;;10.30;99.90;;;;;;5004722;28;20038;-84
2023/05/16 06:23:50;;;;;;;15.27;2.42;;;10.30;99.90;;;;;;5001836;28;20480;-84
2023/05/16 06:26:15;;;;;;;9.57;1.13;;;10.50;99.90;;;;;;5011982;28;20064;-84
2023/05/16 06:28:41;;;;;;;9.02;1.70;;;10.60;99.90;;;;;;4993160;28;20073;-83
2023/05/16 06:31:09;;;;;;;7.82;1.17;;;10.70;99.90;;;;;;4995280;28;20096;-84
2023/05/16 06:33:38;;;;;;;7.95;1.25;;;10.60;99.90;;;;;;4980092;28;20038;-85
2023/05/16 06:36:04;;;;;;;9.48;1.45;;;10.60;99.90;;;;;;5013463;28;20088;-83
2023/05/16 06:38:30;;;;;;;10.25;1.20;;;10.60;99.90;;;;;;4976610;28;20346;-84
2023/05/16 06:40:56;;;;;;;9.95;1.75;;;10.60;99.90;;;;;;4969133;28;20495;-84
2023/05/16 06:43:22;;;;;;;12.20;1.23;;;10.60;99.90;;;;;;4979504;28;20181;-84
2023/05/16 06:45:48;;;;;;;7.93;1.77;;;10.50;99.90;;;;;;4982165;28;20049;-84
2023/05/16 06:48:14;;;;;;;13.02;1.55;;;10.50;99.90;;;;;;4966426;28;20490;-84
2023/05/16 06:50:41;;;;;;;10.02;1.15;;;10.50;99.90;;;;;;4978524;28;20054;-82
2023/05/16 06:53:07;;;;;;;7.78;1.00;;;10.50;99.90;;;;;;4958000;28;20039;-84
2023/05/16 06:55:33;;;;;;;6.80;0.90;;;10.50;99.90;;;;;;4958680;28;20449;-84
2023/05/16 06:57:59;;;;;;;2.63;0.55;;;10.50;99.90;;;;;;4974323;28;20038;-84
2023/05/16 07:00:25;;;;;;;5.03;0.90;;;10.50;99.90;;;;;;4958805;28;20466;-84
2023/05/16 07:02:52;;;;;;;6.07;0.85;;;10.60;99.90;;;;;;4988149;28;20035;-84
2023/05/16 07:05:17;;;;;;;8.68;0.70;;;10.70;99.90;;;;;;4975897;28;20045;-85
2023/05/16 07:07:45;;;;;;;5.85;0.80;;;10.60;99.90;;;;;;4986130;28;20397;-84
2023/05/16 07:10:13;;;;;;;6.82;0.85;;;10.70;99.90;;;;;;4975648;28;20156;-83
2023/05/16 07:12:41;;;;;;;9.50;1.10;;;10.80;99.90;;;;;;4973955;28;20053;-84
2023/05/16 07:15:10;;;;;;;5.22;0.85;;;11.10;99.90;;;;;;4971252;28;20050;-83
2023/05/16 07:17:40;;;;;;;6.40;0.82;;;11.30;99.90;;;;;;4969442;28;20047;-84
2023/05/16 07:20:10;;;;;;;5.68;1.30;;;11.50;99.90;;;;;;4979436;28;20042;-84
2023/05/16 07:22:36;;;;;;;5.57;0.95;;;11.70;99.90;;;;;;4979205;28;20069;-85
2023/05/16 07:25:01;;;;;;;6.40;1.10;;;11.80;99.90;;;;;;4975247;28;20069;-85
2023/05/16 07:27:31;;;;;;;6.47;1.40;;;12.10;99.90;;;;;;4975073;28;20050;-84
2023/05/16 07:29:59;;;;;;;5.72;0.80;;;12.30;99.90;;;;;;4979031;28;20157;-84
2023/05/16 07:32:27;;;;;;;7.18;1.10;;;12.40;99.90;;;;;;4975030;28;20156;-85
2023/05/16 07:34:53;;;;;;;8.30;1.55;;;12.40;99.90;;;;;;4967112;28;20081;-84
2023/05/16 07:37:19;;;;;;;9.70;1.10;;;12.30;99.90;;;;;;4993560;28;20080;-83
2023/05/16 07:39:45;;;;;;;15.38;1.67;;;12.40;99.90;;;;;;5023560;28;20208;-83
2023/05/16 07:42:11;;;;;;;8.20;1.17;;;12.60;99.90;;;;;;4996167;28;20077;-83
2023/05/16 07:44:39;;;;;;;6.93;1.00;;;12.60;99.90;;;;;;4995761;28;20042;-84
2023/05/16 07:47:05;;;;;;;4.50;0.90;;;12.50;99.90;;;;;;5018500;28;20038;-83
2023/05/16 07:49:31;;;;;;;7.05;1.40;;;12.30;99.90;;;;;;4999420;28;20052;-84
2023/05/16 07:51:56;;;;;;;10.18;2.45;;;12.20;99.90;;;;;;4996290;28;20121;-83
2023/05/16 07:54:22;;;;;;;7.13;1.45;;;12.30;99.90;;;;;;5017362;28;20038;-84
2023/05/16 07:56:48;;;;;;;7.90;1.40;;;11.90;99.90;;;;;;5002714;28;20042;-85
2023/05/16 07:59:14;;;;;;;7.65;1.20;;;11.80;99.90;;;;;;4995415;28;20051;-84
2023/05/16 08:01:40;;;;;;;9.60;1.30;;;11.90;99.90;;;;;;5004822;28;20045;-84
2023/05/16 08:04:05;;;;;;;5.95;0.85;;;12.10;99.90;;;;;;4989114;28;20535;-84
2023/05/16 08:06:31;;;;;;;10.75;1.20;;;12.10;99.90;;;;;;5013900;28;20140;-83
2023/05/16 08:08:57;;;;;;;8.77;0.95;;;12.10;99.90;;;;;;4990902;28;20058;-83
2023/05/16 08:11:23;;;;;;;7.00;1.45;;;12.10;99.90;;;;;;4978847;28;20128;-84
2023/05/16 08:13:49;;;;;;;4.90;1.17;;;12.50;99.90;;;;;;5000339;28;20065;-83
2023/05/16 08:16:15;;;;;;;8.98;1.67;;;12.40;99.90;;;;;;5001183;28;20476;-82
2023/05/16 08:18:41;;;;;;;7.45;1.10;;;12.60;99.90;;;;;;4995378;28;20084;-84
2023/05/16 08:21:08;;;;;;;8.93;1.13;;;13.00;99.90;;;;;;5003445;28;20033;-83
2023/05/16 08:23:33;;;;;;;7.70;1.00;;;12.80;99.90;;;;;;4985071;28;20037;-83
2023/05/16 08:26:00;;;;;;;9.27;1.38;;;12.90;99.90;;;;;;4989170;28;20038;-84
2023/05/16 08:28:26;;;;;;;7.32;1.13;;;13.10;99.90;;;;;;4992214;28;20120;-82
2023/05/16 08:30:53;;;;;;;9.68;1.05;;;13.10;99.90;;;;;;5015876;28;20061;-84
2023/05/16 08:33:18;;;;;;;9.38;1.27;;;13.20;99.90;;;;;;4999841;28;20533;-84
2023/05/16 08:35:45;;;;;;;14.68;1.92;;;13.40;99.90;;;;;;5017352;28;20038;-84
2023/05/16 08:38:11;;;;;;;6.57;1.13;;;13.40;99.90;;;;;;5012037;28;20505;-84
2023/05/16 08:40:37;;;;;;;8.98;0.80;;;13.40;99.90;;;;;;5000732;28;20044;-82
2023/05/16 08:43:04;;;;;;;4.57;1.00;;;13.10;99.90;;;;;;4997292;28;20037;-84
2023/05/16 08:45:30;;;;;;;4.95;0.98;;;12.80;99.90;;;;;;4998013;28;20354;-83
2023/05/16 08:47:59;;;;;;;5.45;1.38;;;12.60;99.90;;;;;;5012439;28;20119;-84
2023/05/16 08:50:28;;;;;;;5.25;0.90;;;12.50;99.90;;;;;;5012056;28;20041;-84
2023/05/16 08:52:54;;;;;;;4.60;0.75;;;12.50;99.90;;;;;;4996806;28;20048;-84
2023/05/16 08:55:23;;;;;;;5.47;0.93;;;12.70;99.90;;;;;;4995035;28;20117;-84
2023/05/16 08:57:50;;;;;;;6.25;0.82;;;12.90;99.90;;;;;;5000981;28;20158;-84
2023/05/16 09:00:18;;;;;;;7.22;1.05;;;13.00;99.90;;;;;;5011796;28;20048;-84
2023/05/16 09:02:44;;;;;;;9.90;1.00;;;13.20;99.90;;;;;;4995627;28;20037;-85
2023/05/16 09:05:13;;;;;;;7.88;0.90;;;13.40;99.90;;;;;;5008310;28;20104;-85
2023/05/16 09:07:39;;;;;;;5.95;0.95;;;13.60;99.90;;;;;;4993481;28;20045;-85
2023/05/16 09:10:09;;;;;;;5.50;1.13;;;14.10;99.90;;;;;;5011607;28;20045;-85
2023/05/16 09:12:35;;;;;;;8.63;1.17;;;13.80;99.90;;;;;;5023129;28;20045;-84
2023/05/16 09:15:03;;;;;;;6.22;0.90;;;13.80;99.90;;;;;;4994838;28;20033;-84
2023/05/16 09:17:45;;;;;;;7.40;1.23;;;13.60;99.90;;;;;;5012525;28;20037;-85
2023/05/16 09:20:12;;;;;;;8.77;1.17;;;13.50;99.90;;;;;;5017434;28;20046;-84
2023/05/16 09:22:38;;;;;;;7.43;1.08;;;13.60;99.90;;;;;;5003704;28;20045;-83
2023/05/16 09:25:04;;;;;;;5.45;0.85;;;13.70;99.90;;;;;;4998920;28;20048;-84
2023/05/16 09:27:31;;;;;;;8.15;1.25;;;13.70;99.90;;;;;;5015992;28;20083;-83
2023/05/16 09:29:58;;;;;;;5.35;1.20;;;13.90;99.90;;;;;;4995226;28;20034;-83
2023/05/16 09:32:24;;;;;;;8.38;1.17;;;14.00;99.90;;;;;;5011635;28;20045;-83
2023/05/16 09:34:52;;;;;;;7.00;1.15;;;14.00;99.90;;;;;;5019807;28;20490;-83
2023/05/16 09:37:19;;;;;;;6.75;1.30;;;14.00;99.90;;;;;;5006731;28;20097;-84
2023/05/16 09:39:47;;;;;;;6.80;1.30;;;14.00;99.90;;;;;;5021730;28;20099;-84
2023/05/16 09:42:21;;;;;;;8.70;1.20;;;14.00;99.90;;;;;;4980964;28;20046;-85
2023/05/16 09:44:53;;;;;;;7.20;1.05;;;14.20;99.90;;;;;;4998058;28;20045;-84
2023/05/16 09:47:20;;;;;;;6.18;0.80;;;14.30;99.90;;;;;;4995091;28;20069;-83
2023/05/16 09:49:52;;;;;;;6.15;0.82;;;14.50;99.90;;;;;;5018277;28;20050;-83
2023/05/16 09:52:18;;;;;;;5.45;0.77;;;14.60;99.90;;;;;;4993849;28;20450;-84
2023/05/16 09:54:47;;;;;;;9.73;1.17;;;14.70;99.90;;;;;;5015249;28;20033;-84
2023/05/16 09:57:18;;;;;;;6.90;0.82;;;14.70;99.90;;;;;;5017714;28;20066;-83
2023/05/16 09:59:44;;;;;;;9.02;1.10;;;14.80;99.90;;;;;;5011658;28;20034;-83
2023/05/16 10:02:12;;;;;;;9.45;1.27;;;14.80;99.90;;;;;;4998373;28;20488;-83
2023/05/16 10:04:38;;;;;;;11.27;1.20;;;14.90;99.90;;;;;;5016361;28;20129;-83
2023/05/16 10:07:05;;;;;;;7.82;1.45;;;14.90;99.90;;;;;;5002557;28;20116;-84
2023/05/16 10:09:32;;;;;;;8.80;1.40;;;14.80;99.90;;;;;;4997841;28;20074;-83
2023/05/16 10:12:04;;;;;;;8.57;0.98;;;14.70;99.90;;;;;;4998710;28;20041;-84
2023/05/16 10:14:37;;;;;;;9.73;1.33;;;14.50;99.90;;;;;;5013075;28;20508;-83
2023/05/16 10:17:06;;;;;;;7.37;1.33;;;14.40;99.90;;;;;;4990505;28;20039;-84
2023/05/16 10:19:37;;;;;;;9.00;1.20;;;14.40;99.90;;;;;;5003080;28;20304;-83
2023/05/16 10:22:04;;;;;;;10.00;1.15;;;14.70;99.90;;;;;;5014562;28;20489;-83
2023/05/16 10:24:47;;;;;;;7.60;1.30;;;14.60;99.90;;;;;;5015375;28;20104;-83
2023/05/16 10:27:14;;;;;;;6.07;0.80;;;14.70;99.90;;;;;;5015149;28;20061;-82
2023/05/16 10:29:40;;;;;;;9.27;0.85;;;14.90;99.90;;;;;;4983286;28;20049;-84
2023/05/16 10:32:07;;;;;;;5.97;1.00;;;15.00;99.90;;;;;;5015863;28;20049;-84
2023/05/16 10:34:33;;;;;;;7.47;1.00;;;15.00;99.90;;;;;;5026850;28;20038;-84
2023/05/16 10:37:00;;;;;;;10.27;1.23;;;14.90;99.90;;;;;;4996788;28;20559;-83
2023/05/16 10:39:27;;;;;;;7.10;0.98;;;14.80;99.90;;;;;;4985383;28;20053;-83
2023/05/16 10:41:53;;;;;;;11.00;1.38;;;14.60;99.90;;;;;;4980726;28;20044;-83
2023/05/16 10:44:19;;;;;;;6.13;1.05;;;14.70;99.90;;;;;;5005264;28;20060;-84
2023/05/16 10:46:46;;;;;;;6.68;1.05;;;14.70;99.90;;;;;;5002777;28;20470;-83
2023/05/16 10:49:20;;;;;;;7.15;1.13;;;14.80;99.90;;;;;;5019590;28;20393;-84
2023/05/16 10:52:09;;;;;;;9.80;1.02;;;14.90;99.90;;;;;;5009552;28;20046;-83
2023/05/16 10:54:42;;;;;;;8.05;1.40;;;15.10;99.90;;;;;;5020143;28;20046;-82
2023/05/16 10:57:16;;;;;;;4.47;1.03;;;15.50;99.90;;;;;;5020678;28;20108;-83
2023/05/16 10:59:47;;;;;;;8.77;1.52;;;15.40;99.90;;;;;;5020492;28;20305;-83
2023/05/16 11:02:43;;;;;;;5.22;0.93;;;15.50;99.90;;;;;;5000920;28;20041;-83
2023/05/16 11:05:16;;;;;;;6.95;1.05;;;15.60;99.90;;;;;;5017938;28;20044;-83
2023/05/16 11:07:42;;;;;;;9.43;1.00;;;15.50;99.90;;;;;;5001793;28;20121;-84
2023/05/16 11:10:15;;;;;;;8.65;1.08;;;15.30;99.90;;;;;;5018503;28;20124;-83
2023/05/16 11:12:48;;;;;;;8.32;0.73;;;15.20;99.90;;;;;;4999788;28;20042;-83
2023/05/16 11:15:24;;;;;;;9.30;1.03;;;15.20;99.90;;;;;;4995629;28;20409;-84
2023/05/16 11:18:02;;;;;;;7.85;1.02;;;15.40;99.90;;;;;;4995512;28;20046;-84
2023/05/16 11:20:38;;;;;;;5.80;0.63;;;15.50;99.90;;;;;;5006579;28;20072;-83
2023/05/16 11:23:22;;;;;;;4.72;0.80;;;15.40;99.90;;;;;;5010742;28;20030;-83
2023/05/16 11:25:52;;;;;;;8.73;1.42;;;15.50;99.90;;;;;;5016699;28;20048;-83
2023/05/16 11:28:19;;;;;;;9.40;1.30;;;15.50;99.90;;;;;;5018559;28;20397;-83
2023/05/16 11:30:55;;;;;;;6.80;1.13;;;15.70;99.90;;;;;;5014886;28;20444;-85
2023/05/16 11:33:21;;;;;;;9.30;0.93;;;15.90;99.90;;;;;;5020346;28;20096;-84
2023/05/16 11:36:07;;;;;;;6.57;1.00;;;16.00;99.90;;;;;;4996100;28;20455;-83
2023/05/16 11:38:33;;;;;;;8.85;0.93;;;15.90;99.90;;;;;;5019416;28;20080;-83
2023/05/16 11:41:06;;;;;;;6.47;1.10;;;16.00;99.90;;;;;;5022446;28;20476;-83
2023/05/16 11:43:43;;;;;;;6.40;1.00;;;15.90;99.90;;;;;;5020137;28;20041;-83
2023/05/16 11:46:14;;;;;;;5.82;1.65;;;15.90;99.90;;;;;;4998796;28;20095;-84
2023/05/16 11:48:40;;;;;;;3.72;1.00;;;15.90;99.90;;;;;;5018289;28;20045;-84
2023/05/16 11:51:09;;;;;;;4.68;1.23;;;15.80;99.90;;;;;;4986910;28;20052;-85
2023/05/16 11:53:36;;;;;;;6.60;1.20;;;15.80;99.90;;;;;;5003520;28;20038;-83
2023/05/16 11:56:02;;;;;;;8.52;1.65;;;15.70;99.90;;;;;;5016820;28;20075;-85
2023/05/16 11:58:28;;;;;;;8.70;1.88;;;15.80;99.90;;;;;;5020876;28;20491;-86
2023/05/16 12:00:54;;;;;;;6.95;1.90;;;15.70;99.90;;;;;;4995571;28;20103;-85
2023/05/16 12:03:22;;;;;;;6.80;1.55;;;15.60;99.90;;;;;;5011177;28;20049;-85
2023/05/16 12:05:59;;;;;;;6.32;1.40;;;15.50;99.90;;;;;;4987565;28;20106;-85
2023/05/16 12:08:25;;;;;;;5.68;1.60;;;15.40;99.90;;;;;;5005362;28;20045;-85
2023/05/16 12:10:52;;;;;;;9.65;2.13;;;15.30;99.90;;;;;;4996883;28;20088;-85
2023/05/16 12:13:21;;;;;;;10.25;2.05;;;15.40;99.90;;;;;;5018617;28;20121;-85
2023/05/16 12:15:47;;;;;;;7.43;1.50;;;15.60;99.90;;;;;;4999409;28;20121;-90
2023/05/16 12:18:14;;;;;;;6.82;1.65;;;15.70;99.90;;;;;;5004173;28;20041;-86
2023/05/16 12:20:42;;;;;;;9.00;2.28;;;15.80;99.90;;;;;;5015250;28;20074;-86
2023/05/16 12:23:13;;;;;;;8.82;2.67;;;15.80;99.90;;;;;;5016833;28;20070;-85
2023/05/16 12:25:46;;;;;;;8.65;1.70;;;15.90;99.90;;;;;;4999157;28;20048;-84
2023/05/16 12:28:13;;;;;;;7.65;1.73;;;15.90;99.90;;;;;;5018591;28;20079;-84
2023/05/16 12:30:41;;;;;;;7.10;1.70;;;16.00;99.90;;;;;;4990154;28;20089;-86
2023/05/16 12:33:10;;;;;;;7.32;2.00;;;16.10;99.90;;;;;;4981924;28;20048;-85
2023/05/16 12:35:44;;;;;;;9.68;1.73;;;16.20;99.90;;;;;;5019406;28;20081;-81
2023/05/16 12:38:16;;;;;;;8.43;2.38;;;16.20;99.90;;;;;;4994880;28;20145;-81
2023/05/16 12:40:43;;;;;;;7.63;1.85;;;16.20;99.90;;;;;;5017485;28;20103;-85
2023/05/16 12:43:27;;;;;;;9.05;1.80;;;16.30;99.90;;;;;;5000548;28;20166;-83
2023/05/16 12:45:55;;;;;;;10.25;1.80;;;16.50;99.90;;;;;;5006002;28;20393;-85
2023/05/16 12:48:23;;;;;;;7.80;2.00;;;16.40;99.90;;;;;;4993838;28;20566;-85